.
WxDataArchive / Data Records for 2010-11-26
2010-11-25 November 2010 2010-11-27

Data Records for Friday, 26 November 2010

Time	Temp	Chill	HIndex	Humid	Dewpt	 Wind 	HiWind	WindDir	Rain 	Barom 
-----	----	-----	------	-----	-----	------	------	-------	-----	----- 
00:00	31.2	31.2	31.2	62	19.7	3	7	270	0.00	29.820 
00:05	30.9	30.9	30.9	61	19.1	3	7	270	0.00	29.820 
00:10	30.7	30.7	30.7	60	18.5	3	9	270	0.00	29.820 
00:15	30.6	26.5	30.6	59	18.0	4	9	270	0.00	29.824 
00:20	30.4	30.4	30.4	60	18.2	3	7	292	0.00	29.824 
00:25	30.3	26.1	30.3	61	18.5	4	8	270	0.00	29.824 
00:30	29.8	25.5	29.8	59	17.2	4	9	270	0.00	29.827 
00:35	29.5	29.5	29.5	58	16.6	3	6	270	0.00	29.827 
00:40	29.3	29.3	29.3	58	16.4	3	9	270	0.00	29.827 
00:45	29.0	29.0	29.0	59	16.5	3	6	270	0.00	29.824 
00:50	28.8	28.8	28.8	61	17.1	2	5	270	0.00	29.824 
00:55	28.5	24.0	28.5	60	16.4	4	13	270	0.00	29.824 
01:00	28.2	23.7	28.2	59	15.7	4	10	270	0.00	29.837 
01:05	27.9	22.3	27.9	58	15.1	5	10	270	0.00	29.837 
01:10	27.8	23.2	27.8	57	14.6	4	9	270	0.00	29.837 
01:15	27.5	27.5	27.5	57	14.3	3	5	270	0.00	29.841 
01:20	27.3	22.6	27.3	58	14.5	4	12	270	0.00	29.841 
01:25	27.0	22.3	27.0	58	14.2	4	11	270	0.00	29.841 
01:30	26.9	22.2	26.9	59	14.5	4	9	270	0.00	29.856 
01:35	26.6	21.8	26.6	58	13.8	4	6	270	0.00	29.856 
01:40	26.4	26.4	26.4	58	13.7	3	6	270	0.00	29.856 
01:45	26.4	21.6	26.4	59	14.0	4	9	270	0.00	29.861 
01:50	26.1	21.3	26.1	58	13.4	4	11	270	0.00	29.861 
01:55	26.0	26.0	26.0	58	13.3	3	6	270	0.00	29.861 
02:00	25.8	25.8	25.8	57	12.7	3	6	270	0.00	29.872 
02:05	25.7	25.7	25.7	59	13.4	3	7	270	0.00	29.872 
02:10	25.6	20.7	25.6	60	13.7	4	8	270	0.00	29.872 
02:15	25.6	20.7	25.6	61	14.0	4	10	270	0.00	29.888 
02:20	25.3	20.3	25.3	60	13.4	4	9	270	0.00	29.888 
02:25	25.0	20.0	25.0	60	13.1	4	10	270	0.00	29.888 
02:30	24.7	19.6	24.7	59	12.4	4	8	270	0.00	29.891 
02:35	24.5	19.4	24.5	57	11.5	4	9	270	0.00	29.891 
02:40	24.4	19.3	24.4	57	11.4	4	6	270	0.00	29.891 
02:45	24.2	24.2	24.2	58	11.6	3	7	270	0.00	29.881 
02:50	23.9	23.9	23.9	58	11.3	3	6	248	0.00	29.881 
02:55	23.6	17.2	23.6	56	10.2	5	11	270	0.00	29.881 
03:00	23.5	18.3	23.5	55	9.7	4	7	270	0.00	29.897 
03:05	23.2	17.9	23.2	55	9.5	4	9	270	0.00	29.897 
03:10	23.0	23.0	23.0	55	9.3	3	5	270	0.00	29.897 
03:15	23.0	23.0	23.0	56	9.7	3	10	270	0.00	29.905 
03:20	22.9	22.9	22.9	56	9.6	3	7	270	0.00	29.905 
03:25	22.7	17.3	22.7	55	9.0	4	7	270	0.00	29.905 
03:30	22.7	17.3	22.7	55	9.0	4	10	270	0.00	29.909 
03:35	22.5	17.1	22.5	55	8.8	4	6	270	0.00	29.909 
03:40	22.5	17.1	22.5	55	8.8	4	10	270	0.00	29.909 
03:45	22.5	22.5	22.5	55	8.8	3	6	270	0.00	29.914 
03:50	22.4	22.4	22.4	57	9.5	2	4	248	0.00	29.914 
03:55	22.4	17.0	22.4	57	9.5	4	11	270	0.00	29.914 
04:00	22.4	22.4	22.4	58	9.9	3	6	270	0.00	29.923 
04:05	22.4	22.4	22.4	58	9.9	3	6	270	0.00	29.923 
04:10	22.2	22.2	22.2	58	9.7	3	5	248	0.00	29.923 
04:15	22.2	22.2	22.2	59	10.1	2	5	248	0.00	29.919 
04:20	22.1	22.1	22.1	59	10.0	2	7	248	0.00	29.919 
04:25	22.1	22.1	22.1	59	10.0	3	6	248	0.00	29.919 
04:30	22.1	22.1	22.1	59	10.0	3	9	270	0.00	29.916 
04:35	22.1	22.1	22.1	60	10.4	3	5	270	0.00	29.916 
04:40	22.1	22.1	22.1	60	10.4	2	5	270	0.00	29.916 
04:45	21.9	21.9	21.9	61	10.5	2	6	248	0.00	29.913 
04:50	21.9	21.9	21.9	62	10.9	2	5	248	0.00	29.913 
04:55	21.9	21.9	21.9	62	10.9	3	10	248	0.00	29.913 
05:00	21.9	21.9	21.9	62	10.9	3	7	270	0.00	29.912 
05:05	21.9	21.9	21.9	63	11.3	3	5	270	0.00	29.912 
05:10	21.9	21.9	21.9	63	11.3	3	6	270	0.00	29.912 
05:15	21.9	21.9	21.9	63	11.3	3	5	270	0.00	29.914 
05:20	21.9	21.9	21.9	63	11.3	3	5	248	0.00	29.914 
05:25	21.9	21.9	21.9	63	11.3	3	6	270	0.00	29.914 
05:30	21.9	21.9	21.9	63	11.3	3	6	270	0.00	29.915 
05:35	21.8	21.8	21.8	64	11.5	2	7	292	0.00	29.915 
05:40	21.6	21.6	21.6	64	11.3	2	6	248	0.00	29.915 
05:45	21.6	21.6	21.6	64	11.3	3	7	248	0.00	29.915 
05:50	21.6	21.6	21.6	64	11.3	3	6	270	0.00	29.915 
05:55	21.6	21.6	21.6	64	11.3	2	6	248	0.00	29.915 
06:00	21.6	21.6	21.6	65	11.7	2	5	248	0.00	29.917 
06:05	21.4	21.4	21.4	65	11.5	2	5	270	0.00	29.917 
06:10	21.4	21.4	21.4	64	11.1	3	10	248	0.00	29.917 
06:15	21.4	21.4	21.4	64	11.1	2	6	248	0.00	29.923 
06:20	21.4	21.4	21.4	65	11.5	1	3	248	0.00	29.923 
06:25	21.3	21.3	21.3	64	11.0	3	4	248	0.00	29.923 
06:30	21.3	21.3	21.3	64	11.0	2	6	248	0.00	29.922 
06:35	21.3	21.3	21.3	65	11.4	2	6	248	0.00	29.922 
06:40	21.3	21.3	21.3	65	11.4	2	7	225	0.00	29.922 
06:45	21.1	21.1	21.1	66	11.5	2	7	248	0.00	29.922 
06:50	21.1	21.1	21.1	66	11.5	2	5	248	0.00	29.922 
06:55	21.1	21.1	21.1	66	11.5	2	7	248	0.00	29.922 
07:00	21.1	21.1	21.1	66	11.5	2	5	270	0.00	29.926 
07:05	21.0	21.0	21.0	66	11.5	3	11	248	0.00	29.926 
07:10	21.0	21.0	21.0	66	11.5	3	7	248	0.00	29.926 
07:15	21.0	21.0	21.0	66	11.5	2	6	248	0.00	29.930 
07:20	21.0	21.0	21.0	66	11.5	3	6	248	0.00	29.930 
07:25	20.8	20.8	20.8	66	11.3	3	7	248	0.00	29.930 
07:30	20.8	15.1	20.8	66	11.3	4	6	248	0.00	29.932 
07:35	20.8	20.8	20.8	66	11.3	3	7	270	0.00	29.932 
07:40	20.8	20.8	20.8	66	11.3	2	5	270	0.00	29.932 
07:45	20.6	20.6	20.6	66	11.1	2	6	248	0.00	29.933 
07:50	20.6	14.9	20.6	66	11.1	4	9	248	0.00	29.933 
07:55	20.6	20.6	20.6	66	11.1	2	6	248	0.00	29.933 
08:00	20.6	20.6	20.6	66	11.1	3	10	270	0.00	29.930 
08:05	20.8	20.8	20.8	66	11.3	3	6	270	0.00	29.930 
08:10	20.8	20.8	20.8	66	11.3	2	9	248	0.00	29.930 
08:15	21.0	21.0	21.0	65	11.1	3	8	248	0.00	29.936 
08:20	21.1	21.1	21.1	65	11.2	3	9	248	0.00	29.936 
08:25	21.1	21.1	21.1	65	11.2	3	7	248	0.00	29.936 
08:30	21.1	21.1	21.1	65	11.2	3	12	248	0.00	29.935 
08:35	21.3	21.3	21.3	65	11.4	3	7	248	0.00	29.935 
08:40	21.3	21.3	21.3	65	11.4	3	7	248	0.00	29.935 
08:45	21.4	21.4	21.4	65	11.5	3	7	270	0.00	29.936 
08:50	21.6	21.6	21.6	66	12.0	2	4	248	0.00	29.936 
08:55	21.6	21.6	21.6	64	11.3	3	12	248	0.00	29.936 
09:00	21.8	21.8	21.8	64	11.5	3	6	248	0.00	29.946 
09:05	21.9	21.9	21.9	63	11.3	3	7	270	0.00	29.946 
09:10	22.1	22.1	22.1	62	11.1	3	10	270	0.00	29.946 
09:15	22.2	16.8	22.2	61	10.8	4	10	248	0.00	29.946 
09:20	22.4	15.8	22.4	61	11.0	5	10	270	0.00	29.946 
09:25	22.5	17.1	22.5	61	11.1	4	9	270	0.00	29.946 
09:30	22.7	17.3	22.7	61	11.3	4	9	270	0.00	29.943 
09:35	22.7	17.3	22.7	60	10.9	4	10	270	0.00	29.943 
09:40	22.9	17.6	22.9	61	11.5	4	10	270	0.00	29.943 
09:45	23.0	23.0	23.0	60	11.2	3	10	248	0.00	29.945 
09:50	23.3	18.0	23.3	59	11.1	4	9	270	0.00	29.945 
09:55	23.3	16.9	23.3	58	10.7	5	14	270	0.00	29.945 
10:00	23.5	18.3	23.5	59	11.3	4	10	270	0.00	29.941 
10:05	23.6	17.2	23.6	58	11.0	5	13	270	0.00	29.941 
10:10	23.6	17.2	23.6	57	10.6	5	15	270	0.00	29.941 
10:15	23.9	23.9	23.9	57	10.9	3	8	270	0.00	29.938 
10:20	24.2	19.1	24.2	56	10.8	4	10	270	0.00	29.938 
10:25	24.2	19.1	24.2	55	10.4	4	11	270	0.00	29.938 
10:30	24.5	19.4	24.5	54	10.3	4	10	270	0.00	29.937 
10:35	24.7	19.6	24.7	54	10.5	4	9	270	0.00	29.937 
10:40	25.0	20.0	25.0	54	10.7	4	9	270	0.00	29.937 
10:45	25.0	20.0	25.0	53	10.3	4	10	270	0.00	29.933 
10:50	25.3	20.3	25.3	54	11.0	4	9	270	0.00	29.933 
10:55	25.6	20.7	25.6	54	11.3	4	9	270	0.00	29.933 
11:00	25.6	19.6	25.6	54	11.3	5	14	248	0.00	29.935 
11:05	25.4	20.5	25.4	54	11.1	4	12	248	0.00	29.935 
11:10	25.7	20.8	25.7	54	11.4	4	11	248	0.00	29.935 
11:15	25.7	20.8	25.7	55	11.8	4	11	270	0.00	29.932 
11:20	26.0	21.1	26.0	55	12.1	4	10	270	0.00	29.932 
11:25	26.0	21.1	26.0	54	11.7	4	10	270	0.00	29.932 
11:30	26.3	26.3	26.3	54	11.9	3	7	270	0.00	29.922 
11:35	26.3	21.5	26.3	54	11.9	4	10	270	0.00	29.922 
11:40	26.4	21.6	26.4	54	12.0	4	11	270	0.00	29.922 
11:45	26.6	21.8	26.6	54	12.2	4	11	270	0.00	29.919 
11:50	26.7	22.0	26.7	53	11.9	4	10	270	0.00	29.919 
11:55	26.9	21.1	26.9	52	11.7	5	13	270	0.00	29.919 
12:00	27.0	27.0	27.0	53	12.2	3	7	270	0.00	29.917 
12:05	27.5	22.9	27.5	53	12.6	4	10	270	0.00	29.917 
12:10	27.3	21.6	27.3	52	12.0	5	11	248	0.00	29.917 
12:15	27.5	21.8	27.5	53	12.6	5	10	270	0.00	29.913 
12:20	27.8	23.2	27.8	52	12.5	4	11	270	0.00	29.913 
12:25	27.9	23.3	27.9	52	12.6	4	7	270	0.00	29.913 
12:30	28.2	28.2	28.2	53	13.3	3	7	248	0.00	29.906 
12:35	28.4	22.8	28.4	52	13.0	5	11	270	0.00	29.906 
12:40	28.4	23.9	28.4	53	13.5	4	11	270	0.00	29.906 
12:45	28.4	22.8	28.4	53	13.5	5	15	248	0.00	29.893 
12:50	28.5	24.0	28.5	53	13.6	4	9	248	0.00	29.893 
12:55	29.0	24.6	29.0	53	14.0	4	10	248	0.00	29.893 
13:00	29.1	24.7	29.1	52	13.7	4	11	270	0.00	29.889 
13:05	29.1	24.7	29.1	52	13.7	4	10	270	0.00	29.889 
13:10	29.3	25.0	29.3	53	14.3	4	7	270	0.00	29.889 
13:15	29.4	25.1	29.4	53	14.4	4	11	270	0.00	29.890 
13:20	29.5	25.2	29.5	53	14.5	4	9	270	0.00	29.890 
13:25	29.4	24.0	29.4	54	14.8	5	14	248	0.00	29.890 
13:30	29.3	23.9	29.3	54	14.7	5	13	270	0.00	29.882 
13:35	29.3	23.0	29.3	55	15.2	6	12	248	0.00	29.882 
13:40	29.5	25.2	29.5	54	14.9	4	10	270	0.00	29.882 
13:45	29.7	24.4	29.7	53	14.7	5	10	270	0.00	29.878 
13:50	29.7	25.4	29.7	54	15.1	4	9	270	0.00	29.878 
13:55	30.0	25.8	30.0	54	15.4	4	9	270	0.00	29.878 
14:00	29.8	24.5	29.8	53	14.8	5	13	248	0.00	29.874 
14:05	29.7	24.4	29.7	54	15.1	5	12	248	0.00	29.874 
14:10	30.0	30.0	30.0	54	15.4	3	9	248	0.00	29.874 
14:15	30.1	25.9	30.1	53	15.1	4	7	248	0.00	29.874 
14:20	30.0	30.0	30.0	54	15.4	3	6	270	0.00	29.874 
14:25	29.7	29.7	29.7	55	15.5	3	7	270	0.00	29.874 
14:30	29.5	29.5	29.5	55	15.3	3	6	270	0.00	29.873 
14:35	29.5	25.2	29.5	55	15.3	4	13	225	0.00	29.873 
14:40	29.4	25.1	29.4	55	15.3	4	13	248	0.00	29.873 
14:45	29.5	24.1	29.5	55	15.3	5	12	270	0.00	29.866 
14:50	29.7	25.4	29.7	54	15.1	4	12	248	0.00	29.866 
14:55	29.8	25.5	29.8	54	15.2	4	10	248	0.00	29.866 
15:00	30.1	30.1	30.1	54	15.5	3	7	270	0.00	29.871 
15:05	30.3	25.1	30.3	53	15.2	5	14	270	0.00	29.871 
15:10	30.0	24.7	30.0	53	15.0	5	13	270	0.00	29.871 
15:15	30.1	24.8	30.1	54	15.5	5	10	270	0.00	29.862 
15:20	30.1	25.9	30.1	54	15.5	4	7	270	0.00	29.862 
15:25	30.3	25.1	30.3	54	15.7	5	10	270	0.00	29.862 
15:30	30.4	26.2	30.4	53	15.3	4	10	270	0.00	29.862 
15:35	30.4	25.2	30.4	54	15.8	5	15	270	0.00	29.862 
15:40	30.3	25.1	30.3	53	15.2	5	12	248	0.00	29.862 
15:45	30.1	25.9	30.1	53	15.1	4	12	248	0.00	29.861 
15:50	30.3	26.1	30.3	53	15.2	4	18	248	0.00	29.861 
15:55	30.0	24.7	30.0	52	14.5	5	11	270	0.00	29.861 
16:00	29.8	25.5	29.8	52	14.3	4	11	270	0.00	29.851 
16:05	29.8	24.5	29.8	53	14.8	5	12	248	0.00	29.851 
16:10	29.8	25.5	29.8	53	14.8	4	10	270	0.00	29.851 
16:15	29.8	29.8	29.8	53	14.8	3	10	248	0.00	29.848 
16:20	29.8	29.8	29.8	53	14.8	3	6	270	0.00	29.848 
16:25	29.8	29.8	29.8	53	14.8	3	6	248	0.00	29.848 
16:30	29.7	25.4	29.7	53	14.7	4	11	270	0.00	29.844 
16:35	29.7	29.7	29.7	53	14.7	2	9	270	0.00	29.844 
16:40	29.5	29.5	29.5	54	14.9	2	5	225	0.00	29.844 
16:45	29.4	25.1	29.4	53	14.4	4	12	270	0.00	29.846 
16:50	29.4	29.4	29.4	54	14.8	3	10	248	0.00	29.846 
16:55	29.3	29.3	29.3	54	14.7	3	9	248	0.00	29.846 
17:00	29.1	24.7	29.1	54	14.6	4	11	270	0.00	29.848 
17:05	29.1	24.7	29.1	54	14.6	4	9	270	0.00	29.848 
17:10	29.0	24.6	29.0	54	14.5	4	12	270	0.00	29.848 
17:15	29.0	29.0	29.0	55	14.9	3	7	270	0.00	29.849 
17:20	28.8	28.8	28.8	55	14.7	2	10	270	0.00	29.849 
17:25	28.7	28.7	28.7	56	15.0	3	7	248	0.00	29.849 
17:30	28.7	28.7	28.7	56	15.0	2	6	248	0.00	29.850 
17:35	28.7	28.7	28.7	57	15.4	3	8	248	0.00	29.850 
17:40	28.7	28.7	28.7	57	15.4	2	5	225	0.00	29.850 
17:45	28.5	28.5	28.5	58	15.6	2	6	248	0.00	29.848 
17:50	28.5	28.5	28.5	57	15.2	3	10	248	0.00	29.848 
17:55	28.5	28.5	28.5	58	15.6	3	7	248	0.00	29.848 
18:00	28.5	28.5	28.5	58	15.6	2	6	270	0.00	29.853 
18:05	28.5	28.5	28.5	58	15.6	2	7	248	0.00	29.853 
18:10	28.4	28.4	28.4	59	15.9	1	4	248	0.00	29.853 
18:15	28.4	28.4	28.4	59	15.9	2	7	225	0.00	29.854 
18:20	28.4	28.4	28.4	59	15.9	3	6	248	0.00	29.854 
18:25	28.5	28.5	28.5	59	16.0	2	9	248	0.00	29.854 
18:30	28.5	28.5	28.5	60	16.4	3	7	248	0.00	29.848 
18:35	28.5	28.5	28.5	60	16.4	3	7	248	0.00	29.848 
18:40	28.5	28.5	28.5	61	16.8	2	6	248	0.00	29.848 
18:45	28.5	28.5	28.5	61	16.8	2	7	248	0.00	29.858 
18:50	28.4	28.4	28.4	62	17.1	2	6	248	0.00	29.858 
18:55	28.5	28.5	28.5	62	17.2	3	9	248	0.00	29.858 
19:00	28.5	28.5	28.5	62	17.2	3	5	225	0.00	29.854 
19:05	28.5	28.5	28.5	62	17.2	2	9	248	0.00	29.854 
19:10	28.5	28.5	28.5	62	17.2	2	7	248	0.00	29.854 
19:15	28.7	28.7	28.7	62	17.4	2	5	225	0.00	29.848 
19:20	28.5	28.5	28.5	62	17.2	2	7	225	0.00	29.848 
19:25	28.7	28.7	28.7	62	17.4	2	7	248	0.00	29.848 
19:30	28.8	28.8	28.8	63	17.8	2	6	248	0.00	29.845 
19:35	29.0	29.0	29.0	63	18.0	3	7	248	0.00	29.845 
19:40	29.1	29.1	29.1	63	18.1	3	6	248	0.00	29.845 
19:45	29.3	29.3	29.3	63	18.3	3	5	248	0.00	29.847 
19:50	29.4	29.4	29.4	63	18.4	3	7	248	0.00	29.847 
19:55	29.4	29.4	29.4	64	18.8	3	8	248	0.00	29.847 
20:00	29.5	29.5	29.5	64	18.8	3	7	248	0.00	29.842 
20:05	29.5	25.2	29.5	64	18.8	4	8	248	0.00	29.842 
20:10	29.7	29.7	29.7	64	19.0	3	7	248	0.00	29.842 
20:15	29.8	29.8	29.8	64	19.1	3	7	248	0.00	29.843 
20:20	30.0	25.8	30.0	64	19.3	4	11	270	0.00	29.843 
20:25	30.3	26.1	30.3	63	19.2	4	10	248	0.00	29.843 
20:30	30.4	30.4	30.4	63	19.3	3	7	248	0.00	29.836 
20:35	30.6	26.5	30.6	63	19.5	4	10	270	0.00	29.836 
20:40	30.9	25.8	30.9	63	19.8	5	11	270	0.00	29.836 
20:45	30.9	30.9	30.9	63	19.8	3	6	248	0.00	29.831 
20:50	31.2	26.1	31.2	63	20.1	5	12	248	0.00	29.831 
20:55	31.3	26.3	31.3	63	20.2	5	12	248	0.00	29.831 
21:00	31.5	26.5	31.5	62	20.0	5	11	248	0.00	29.829 
21:05	31.5	27.5	31.5	63	20.4	4	11	248	0.00	29.829 
21:10	31.6	26.6	31.6	63	20.5	5	11	248	0.00	29.829 
21:15	31.8	26.8	31.8	63	20.7	5	12	248	0.00	29.823 
21:20	31.8	27.8	31.8	63	20.7	4	9	248	0.00	29.823 
21:25	31.8	31.8	31.8	63	20.7	3	7	248	0.00	29.823 
21:30	31.9	27.0	31.9	63	20.8	5	10	248	0.00	29.823 
21:35	31.9	27.0	31.9	63	20.8	5	13	270	0.00	29.823 
21:40	32.1	28.2	32.1	63	20.9	4	14	248	0.00	29.823 
21:45	32.1	28.2	32.1	63	20.9	4	14	270	0.00	29.823 
21:50	32.2	28.3	32.2	63	21.0	4	7	270	0.00	29.823 
21:55	32.2	28.3	32.2	63	21.0	4	7	270	0.00	29.823 
22:00	32.4	32.4	32.4	63	21.2	3	8	248	0.00	29.821 
22:05	32.4	32.4	32.4	63	21.2	3	10	248	0.00	29.821 
22:10	32.4	28.5	32.4	63	21.2	4	13	270	0.00	29.821 
22:15	32.5	28.7	32.5	63	21.3	4	11	270	0.00	29.819 
22:20	32.5	32.5	32.5	64	21.7	3	5	248	0.00	29.819 
22:25	32.5	32.5	32.5	64	21.7	3	6	292	0.00	29.819 
22:30	32.4	28.5	32.4	64	21.6	4	9	270	0.00	29.812 
22:35	32.4	32.4	32.4	65	22.0	3	10	270	0.00	29.812 
22:40	32.4	28.5	32.4	65	22.0	4	12	270	0.00	29.812 
22:45	32.2	32.2	32.2	65	21.8	3	9	248	0.00	29.810 
22:50	32.2	28.3	32.2	65	21.8	4	12	248	0.00	29.810 
22:55	31.9	31.9	31.9	66	21.9	3	9	270	0.00	29.810 
23:00	31.9	31.9	31.9	66	21.9	3	6	270	0.00	29.809 
23:05	31.8	31.8	31.8	66	21.8	3	7	270	0.00	29.809 
23:10	31.8	31.8	31.8	66	21.8	3	6	248	0.00	29.809 
23:15	31.5	31.5	31.5	66	21.5	3	10	270	0.00	29.814 
23:20	31.5	27.5	31.5	66	21.5	4	10	270	0.00	29.814 
23:25	31.5	26.5	31.5	65	21.1	5	8	270	0.00	29.814 
23:30	31.5	27.5	31.5	64	20.7	4	9	270	0.00	29.823 
23:35	31.5	31.5	31.5	64	20.7	3	6	270	0.00	29.823 
23:40	31.5	31.5	31.5	64	20.7	3	7	270	0.00	29.823 
23:45	31.6	27.6	31.6	63	20.5	4	11	270	0.00	29.832 
23:50	31.6	27.6	31.6	63	20.5	4	8	270	0.00	29.832 
23:55	31.6	26.6	31.6	63	20.5	5	10	270	0.00	29.832 

CoCoRaHS
IN-AL-39
A2 Web Hosting
Creative Commons License
GoDaddy
search engine by freefind advanced

loaded 2018-11-12 14:51:24 • last modified 2010-11-18 10:43:29
Privacy PolicyDisclaimer
• wx.awcolley.com is powered by PmWiki v.2002016 •
• all content (unless otherwise noted) © 2018 A W Colley